createdAt,value
2023-03-04T00:05:00.321Z,34.22
2023-03-04T00:10:05.445Z,34.45
2023-03-04T00:15:11.201Z,36.38
2023-03-04T00:20:19.103Z,31.73
2023-03-04T00:25:23.908Z,30.05
2023-03-04T00:30:29.858Z,32.58
2023-03-04T00:35:37.753Z,29.63
2023-03-04T00:40:42.957Z,32.15
2023-03-04T00:45:48.623Z,33.53
2023-03-04T00:50:56.309Z,33.35
2023-03-04T00:56:01.035Z,33.08
2023-03-04T01:01:05.882Z,33.00
2023-03-04T01:06:13.426Z,34.83
2023-03-04T01:11:18.341Z,34.47
2023-03-04T01:16:23.267Z,31.08
2023-03-04T01:21:30.803Z,30.75
2023-03-04T01:26:35.659Z,33.50
2023-03-04T01:31:40.581Z,32.65
2023-03-04T01:36:48.199Z,30.45
2023-03-04T01:41:52.925Z,30.80
2023-03-04T01:46:58.831Z,36.67
2023-03-04T01:52:06.261Z,32.15
2023-03-04T01:57:18.376Z,35.88
2023-03-04T02:02:23.271Z,37.25
2023-03-04T02:07:30.783Z,31.25
2023-03-04T02:12:36.619Z,33.33
2023-03-04T02:17:41.490Z,31.20
2023-03-04T02:22:51.218Z,27.50
2023-03-04T02:27:58.800Z,34.63
2023-03-04T02:33:03.677Z,31.77
2023-03-04T02:38:08.421Z,31.52
2023-03-04T02:43:16.059Z,30.75
2023-03-04T02:48:21.667Z,40.88
2023-03-04T02:53:26.538Z,35.15
2023-03-04T02:58:34.132Z,36.58
2023-03-04T03:03:38.936Z,35.80
2023-03-04T03:08:43.787Z,37.40
2023-03-04T03:13:51.270Z,35.13
2023-03-04T03:18:56.160Z,32.92
2023-03-04T03:24:01.005Z,32.75
2023-03-04T03:29:08.419Z,30.50
2023-03-04T03:34:13.116Z,32.00
2023-03-04T03:39:18.461Z,32.60
2023-03-04T03:44:25.914Z,36.17
2023-03-04T03:49:30.604Z,35.40
2023-03-04T03:54:35.367Z,34.97
2023-03-04T03:59:42.744Z,38.20
2023-03-04T04:04:47.489Z,37.25
2023-03-04T04:09:52.261Z,34.88
2023-03-04T04:14:59.593Z,32.85
2023-03-04T04:20:04.383Z,32.28
2023-03-04T04:25:10.986Z,34.92
2023-03-04T04:30:18.651Z,34.13
2023-03-04T04:35:23.532Z,36.70
2023-03-04T04:40:28.286Z,35.15
2023-03-04T04:45:35.660Z,32.95
2023-03-04T04:50:40.515Z,33.35
2023-03-04T04:55:45.353Z,30.20
2023-03-04T05:00:52.833Z,32.72
2023-03-04T05:05:58.351Z,30.55
2023-03-04T05:11:03.246Z,28.55
2023-03-04T05:16:11.729Z,29.00
2023-03-04T05:21:16.838Z,28.80
2023-03-04T05:26:22.296Z,39.50
2023-03-04T05:31:29.813Z,25.55
2023-03-04T05:36:34.732Z,26.00
2023-03-04T05:41:39.636Z,25.52
2023-03-04T05:46:47.216Z,25.45
2023-03-04T05:51:52.064Z,22.85
2023-03-04T05:56:56.846Z,24.38
2023-03-04T06:02:04.379Z,23.58
2023-03-04T06:07:09.303Z,25.83
2023-03-04T06:12:14.122Z,27.38
2023-03-04T06:17:24.682Z,24.60
2023-03-04T06:22:29.660Z,25.73
2023-03-04T06:27:34.534Z,22.08
2023-03-04T06:32:45.820Z,27.27
2023-03-04T06:37:50.665Z,25.02
2023-03-04T06:42:55.504Z,23.75
2023-03-04T06:48:03.371Z,25.25
2023-03-04T06:53:08.147Z,25.75
2023-03-04T06:58:13.027Z,25.15
2023-03-04T07:03:20.585Z,26.05
2023-03-04T07:08:25.521Z,23.10
2023-03-04T07:13:30.545Z,26.20
2023-03-04T07:18:38.301Z,23.77
2023-03-04T07:23:43.333Z,25.35
2023-03-04T07:28:48.356Z,24.90
2023-03-04T07:33:55.784Z,31.10
2023-03-04T07:39:00.742Z,38.20
2023-03-04T07:44:06.502Z,32.58
2023-03-04T07:49:14.534Z,34.97
2023-03-04T07:54:20.706Z,29.23
2023-03-04T07:59:25.621Z,29.38
2023-03-04T08:04:33.154Z,26.33
2023-03-04T08:09:38.263Z,25.92
2023-03-04T08:14:43.234Z,24.73
2023-03-04T08:19:50.788Z,27.70
2023-03-04T08:24:55.634Z,31.20
2023-03-04T08:30:00.491Z,29.52
2023-03-04T08:35:08.624Z,26.30
2023-03-04T08:40:14.539Z,29.02
2023-03-04T08:45:19.423Z,23.45
2023-03-04T08:50:27.971Z,61.45
2023-03-04T08:55:32.730Z,33.47
2023-03-04T09:00:37.951Z,36.53
2023-03-04T09:05:45.360Z,28.02
2023-03-04T09:10:50.838Z,26.92
2023-03-04T09:15:56.149Z,25.85
2023-03-04T09:21:03.825Z,26.75
2023-03-04T09:26:16.917Z,27.75
2023-03-04T09:31:21.742Z,29.17
2023-03-04T09:36:29.169Z,28.20
2023-03-04T09:41:37.322Z,28.17
2023-03-04T09:46:43.436Z,27.05
2023-03-04T09:51:57.425Z,51.55
2023-03-04T09:57:05.601Z,37.35
2023-03-04T10:02:18.928Z,29.75
2023-03-04T10:07:27.883Z,26.75
2023-03-04T10:12:33.404Z,25.83
2023-03-04T10:17:40.125Z,26.33
2023-03-04T10:22:48.356Z,25.70
2023-03-04T10:27:54.534Z,26.95
2023-03-04T10:32:59.242Z,25.85
2023-03-04T10:38:08.724Z,23.63
2023-03-04T10:43:18.028Z,25.02
2023-03-04T10:48:23.931Z,25.10
2023-03-04T10:53:33.723Z,22.85
2023-03-04T10:58:38.587Z,23.13
2023-03-04T11:03:49.507Z,24.20
2023-03-04T11:09:00.741Z,23.58
2023-03-04T11:14:09.585Z,21.65
2023-03-04T11:19:17.848Z,22.50
2023-03-04T11:24:29.744Z,22.63
2023-03-04T11:29:37.241Z,23.50
2023-03-04T11:34:45.509Z,23.85
2023-03-04T11:39:55.057Z,22.30
2023-03-04T11:44:59.875Z,21.15
2023-03-04T11:50:29.589Z,23.67
2023-03-04T11:55:42.140Z,20.47
2023-03-04T12:00:53.710Z,22.08
2023-03-04T12:06:00.655Z,25.63
2023-03-04T12:11:10.173Z,20.63
2023-03-04T12:16:22.557Z,21.38
2023-03-04T12:21:38.849Z,21.55
2023-03-04T12:26:50.723Z,20.25
2023-03-04T12:32:01.633Z,20.65
2023-03-04T12:37:20.929Z,19.45
2023-03-04T12:42:34.260Z,19.77
2023-03-04T12:47:47.674Z,18.85
2023-03-04T12:52:57.521Z,21.42
2023-03-04T12:58:05.759Z,22.27
2023-03-04T13:03:14.424Z,22.15
2023-03-04T13:08:28.096Z,25.08
2023-03-04T13:13:45.388Z,21.58
2023-03-04T13:18:50.800Z,23.40
2023-03-04T13:23:56.735Z,20.88
2023-03-04T13:29:34.648Z,28.30
2023-03-04T13:34:50.310Z,24.25
2023-03-04T13:40:23.620Z,18.77
2023-03-04T13:45:39.417Z,24.30
2023-03-04T13:50:48.103Z,27.35
2023-03-04T13:56:08.350Z,16.73
2023-03-04T14:01:26.884Z,27.17
2023-03-04T14:06:32.709Z,25.77
2023-03-04T14:11:40.552Z,32.85
2023-03-04T14:16:52.142Z,20.88
2023-03-04T14:21:58.425Z,14.73
2023-03-04T14:27:25.571Z,34.15
2023-03-04T14:32:33.759Z,24.38
2023-03-04T14:37:43.752Z,29.35
2023-03-04T14:47:57.746Z,16.92
2023-03-04T14:53:17.401Z,26.98
2023-03-04T14:58:23.790Z,27.87
2023-03-04T15:03:32.382Z,20.80
2023-03-04T15:08:38.936Z,18.38
2023-03-04T15:13:44.249Z,17.95
2023-03-04T15:19:03.553Z,20.33
2023-03-04T15:24:12.489Z,21.50
2023-03-04T15:29:19.174Z,17.73
2023-03-04T15:34:26.502Z,20.60
2023-03-04T15:39:33.282Z,17.15
2023-03-04T15:44:38.177Z,14.32
2023-03-04T15:49:56.800Z,13.25
2023-03-04T15:55:02.090Z,12.48
2023-03-04T16:00:07.500Z,10.45
2023-03-04T16:05:16.793Z,12.25
2023-03-04T16:10:26.019Z,13.33
2023-03-04T16:15:32.079Z,20.85
2023-03-04T16:20:40.030Z,25.90
2023-03-04T16:25:46.510Z,22.02
2023-03-04T16:30:51.840Z,20.77
2023-03-04T16:35:59.697Z,20.33
2023-03-04T16:41:06.418Z,20.42
2023-03-04T16:46:15.544Z,21.13
2023-03-04T16:51:24.063Z,23.33
2023-03-04T16:56:29.444Z,24.90
2023-03-04T17:01:38.721Z,23.15
2023-03-04T17:06:46.264Z,22.60
2023-03-04T17:11:51.124Z,31.27
2023-03-04T17:16:56.034Z,42.00
2023-03-04T17:22:04.060Z,41.10
2023-03-04T17:27:08.919Z,41.25
2023-03-04T17:32:13.771Z,41.58
2023-03-04T17:37:21.122Z,43.13
2023-03-04T17:42:25.929Z,40.63
2023-03-04T17:47:30.608Z,39.00
2023-03-04T17:52:40.863Z,44.67
2023-03-04T17:57:45.644Z,46.33
2023-03-04T18:02:50.696Z,44.30
2023-03-04T18:08:00.624Z,40.17
2023-03-04T18:13:05.884Z,35.17
2023-03-04T18:18:12.025Z,35.88
2023-03-04T18:23:19.505Z,37.33
2023-03-04T18:28:24.430Z,40.45
2023-03-04T18:33:29.266Z,46.90
2023-03-04T18:38:36.950Z,52.95
2023-03-04T18:43:41.992Z,52.65
2023-03-04T18:48:48.676Z,69.47
2023-03-04T18:53:56.112Z,77.78
2023-03-04T18:59:01.997Z,72.80
2023-03-04T19:04:08.286Z,64.85
2023-03-04T19:09:16.117Z,61.63
2023-03-04T19:14:20.977Z,67.00
2023-03-04T19:19:25.824Z,56.65
2023-03-04T19:24:33.412Z,43.88
2023-03-04T19:29:38.386Z,39.72
2023-03-04T19:34:43.186Z,37.78
2023-03-04T19:39:51.215Z,31.80
2023-03-04T19:44:56.269Z,24.90
2023-03-04T19:50:01.278Z,24.95
2023-03-04T19:55:10.474Z,22.38
2023-03-04T20:00:16.394Z,21.48
2023-03-04T20:05:21.377Z,24.15
2023-03-04T20:10:28.803Z,24.42
2023-03-04T20:15:35.558Z,20.85
2023-03-04T20:20:40.649Z,33.00
2023-03-04T20:25:47.940Z,24.92
2023-03-04T20:30:53.824Z,31.20
2023-03-04T20:35:58.621Z,24.48
2023-03-04T20:41:06.358Z,23.75
2023-03-04T20:46:26.561Z,24.75
2023-03-04T20:51:31.512Z,25.45
2023-03-04T20:56:41.948Z,22.15
2023-03-04T21:01:49.261Z,22.42
2023-03-04T21:06:57.341Z,26.98
2023-03-04T21:12:05.384Z,28.08
2023-03-04T21:17:10.244Z,25.88
2023-03-04T21:22:17.091Z,28.65
2023-03-04T21:27:24.576Z,32.33
2023-03-04T21:32:31.723Z,32.70
2023-03-04T21:37:37.803Z,30.92
2023-03-04T21:42:45.253Z,32.03
2023-03-04T21:47:50.528Z,33.33
2023-03-04T21:52:55.308Z,35.30
2023-03-04T21:58:02.745Z,30.27
2023-03-04T22:03:08.802Z,33.03
2023-03-04T22:08:13.994Z,34.92
2023-03-04T22:13:21.466Z,35.15
2023-03-04T22:18:26.314Z,40.42
2023-03-04T22:23:31.534Z,37.20
2023-03-04T22:28:38.972Z,28.90
2023-03-04T22:33:44.132Z,30.90
2023-03-04T22:38:48.847Z,33.28
2023-03-04T22:43:56.296Z,35.17
2023-03-04T22:49:01.877Z,30.90
2023-03-04T22:54:06.826Z,31.00
2023-03-04T22:59:14.223Z,41.28
2023-03-04T23:04:18.981Z,31.35
2023-03-04T23:09:23.779Z,32.97
2023-03-04T23:14:31.358Z,45.60
2023-03-04T23:19:37.119Z,29.25
2023-03-04T23:31:21.217Z,29.67
2023-03-04T23:36:38.602Z,28.67
2023-03-04T23:53:08.255Z,36.08
2023-03-04T23:58:13.142Z,40.25
